Observation data for Floydada on 02/14/2020      Previous  Date  Next       Current Mesonet Observations  Soil Data  Daily Summary Page  Observations in Plain Language
KFLS 140600Z 09009KT M05/M08 A3028 RMK A01 T10541078  RH  084%=      5-min Rain = 0
KFLS 140605Z 09009KT M06/M08 A3028 RMK A01 T10561079  RH  085%=      5-min Rain = 0
KFLS 140610Z 09008KT M06/M08 A3028 RMK A01 T10571080  RH  085%=      5-min Rain = 0
KFLS 140615Z 09008KT M06/M08 A3028 RMK A01 T10581081  RH  085%=      5-min Rain = 0
KFLS 140620Z 09008KT M06/M08 A3028 RMK A01 T10601083  RH  085%=      5-min Rain = 0
KFLS 140625Z 09008KT M06/M08 A3028 RMK A01 T10611082  RH  086%=      5-min Rain = 0
KFLS 140630Z 09007KT M06/M08 A3028 RMK A01 T10621082  RH  086%=      5-min Rain = 0
KFLS 140635Z 10007KT M06/M08 A3028 RMK A01 T10621081  RH  087%=      5-min Rain = 0
KFLS 140640Z 09007KT M06/M08 A3029 RMK A01 T10621081  RH  087%=      5-min Rain = 0
KFLS 140645Z 09007KT M06/M08 A3029 RMK A01 T10621082  RH  087%=      5-min Rain = 0
KFLS 140650Z 09007KT M06/M08 A3029 RMK A01 T10631084  RH  087%=      5-min Rain = 0
KFLS 140655Z 09007KT M06/M08 A3029 RMK A01 T10631084  RH  086%=      5-min Rain = 0
KFLS 140700Z 09007KT M06/M08 A3029 RMK A01 T10621084  RH  086%=      5-min Rain = 0
KFLS 140705Z 09007KT M06/M09 A3028 RMK A01 T10631085  RH  085%=      5-min Rain = 0
KFLS 140710Z 10007KT M06/M09 A3028 RMK A01 T10631086  RH  084%=      5-min Rain = 0
KFLS 140715Z 09007KT M06/M09 A3028 RMK A01 T10631088  RH  084%=      5-min Rain = 0
KFLS 140720Z 10006KT M06/M09 A3029 RMK A01 T10641089  RH  084%=      5-min Rain = 0
KFLS 140725Z 10006KT M06/M09 A3029 RMK A01 T10641090  RH  083%=      5-min Rain = 0
KFLS 140730Z 10005KT M07/M09 A3029 RMK A01 T10661092  RH  083%=      5-min Rain = 0
KFLS 140735Z 10005KT M07/M09 A3029 RMK A01 T10661092  RH  083%=      5-min Rain = 0
KFLS 140740Z 09005KT M07/M09 A3029 RMK A01 T10671094  RH  083%=      5-min Rain = 0
KFLS 140745Z 10005KT M07/M09 A3029 RMK A01 T10691094  RH  083%=      5-min Rain = 0
KFLS 140750Z 10005KT M07/M10 A3029 RMK A01 T10701095  RH  083%=      5-min Rain = 0
KFLS 140755Z 10006KT M07/M10 A3029 RMK A01 T10711095  RH  084%=      5-min Rain = 0
KFLS 140800Z 10005KT M07/M10 A3029 RMK A01 T10721095  RH  084%=      5-min Rain = 0
KFLS 140805Z 10005KT M07/M10 A3029 RMK A01 T10731096  RH  085%=      5-min Rain = 0
KFLS 140810Z 10006KT M07/M10 A3029 RMK A01 T10741096  RH  086%=      5-min Rain = 0
KFLS 140815Z 10005KT M08/M10 A3029 RMK A01 T10761097  RH  086%=      5-min Rain = 0
KFLS 140820Z 10005KT M08/M10 A3029 RMK A01 T10771097  RH  086%=      5-min Rain = 0
KFLS 140825Z 09005KT M08/M10 A3029 RMK A01 T10771098  RH  087%=      5-min Rain = 0
KFLS 140830Z 09005KT M08/M10 A303 RMK A01 T10791098  RH  087%=      5-min Rain = 0
KFLS 140835Z 09005KT M08/M10 A303 RMK A01 T10791098  RH  087%=      5-min Rain = 0
KFLS 140840Z 09004KT M08/M10 A303 RMK A01 T10791097  RH  088%=      5-min Rain = 0
KFLS 140845Z 07004KT M08/M10 A303 RMK A01 T10791097  RH  088%=      5-min Rain = 0
KFLS 140850Z 08003KT M08/M10 A303 RMK A01 T10781096  RH  088%=      5-min Rain = 0
KFLS 140855Z 07004KT M08/M10 A303 RMK A01 T10781096  RH  088%=      5-min Rain = 0
KFLS 140900Z 08004KT M08/M10 A303 RMK A01 T10781096  RH  088%=      5-min Rain = 0
KFLS 140905Z 08003KT M08/M10 A303 RMK A01 T10781095  RH  089%=      5-min Rain = 0
KFLS 140910Z 07004KT M08/M10 A303 RMK A01 T10781095  RH  089%=      5-min Rain = 0
KFLS 140915Z 09004KT M08/M10 A303 RMK A01 T10781095  RH  089%=      5-min Rain = 0
KFLS 140920Z 09004KT M08/M09 A303 RMK A01 T10771093  RH  089%=      5-min Rain = 0
KFLS 140925Z 08004KT M08/M10 A303 RMK A01 T10791097  RH  089%=      5-min Rain = 0
KFLS 140930Z 08004KT M08/M10 A303 RMK A01 T10801097  RH  089%=      5-min Rain = 0
KFLS 140935Z 08005KT M08/M10 A303 RMK A01 T10811098  RH  089%=      5-min Rain = 0
KFLS 140940Z 08004KT M08/M10 A303 RMK A01 T10821099  RH  089%=      5-min Rain = 0
KFLS 140945Z 08004KT M08/M10 A303 RMK A01 T10831100  RH  089%=      5-min Rain = 0
KFLS 140950Z 07004KT M08/M10 A303 RMK A01 T10831100  RH  089%=      5-min Rain = 0
KFLS 140955Z 07004KT M08/M10 A303 RMK A01 T10831100  RH  089%=      5-min Rain = 0
KFLS 141000Z 07004KT M08/M10 A303 RMK A01 T10831099  RH  089%=      5-min Rain = 0
KFLS 141005Z 07005KT M08/M10 A303 RMK A01 T10841100  RH  089%=      5-min Rain = 0
KFLS 141010Z 08005KT M08/M10 A303 RMK A01 T10841101  RH  089%=      5-min Rain = 0
KFLS 141015Z 08005KT M08/M10 A303 RMK A01 T10841101  RH  089%=      5-min Rain = 0
KFLS 141020Z 07005KT M08/M10 A303 RMK A01 T10841101  RH  089%=      5-min Rain = 0
KFLS 141025Z 07005KT M09/M10 A303 RMK A01 T10851102  RH  088%=      5-min Rain = 0
KFLS 141030Z 07005KT M09/M10 A303 RMK A01 T10861104  RH  088%=      5-min Rain = 0
KFLS 141035Z 08005KT M09/M10 A303 RMK A01 T10871104  RH  088%=      5-min Rain = 0
KFLS 141040Z 08004KT M09/M10 A303 RMK A01 T10871104  RH  088%=      5-min Rain = 0
KFLS 141045Z 08004KT M09/M10 A303 RMK A01 T10861104  RH  088%=      5-min Rain = 0
KFLS 141050Z 07004KT M09/M10 A303 RMK A01 T10861103  RH  088%=      5-min Rain = 0
KFLS 141055Z 08004KT M09/M10 A303 RMK A01 T10851103  RH  088%=      5-min Rain = 0
KFLS 141100Z 08004KT M09/M10 A303 RMK A01 T10851103  RH  088%=      5-min Rain = 0
KFLS 141105Z 08005KT M09/M10 A303 RMK A01 T10861104  RH  088%=      5-min Rain = 0
KFLS 141110Z 09004KT M09/M10 A303 RMK A01 T10851103  RH  088%=      5-min Rain = 0
KFLS 141115Z 09005KT M08/M10 A303 RMK A01 T10811099  RH  088%=      5-min Rain = 0
KFLS 141120Z 09004KT M08/M09 A303 RMK A01 T10761094  RH  088%=      5-min Rain = 0
KFLS 141125Z 10003KT M07/M09 A303 RMK A01 T10731090  RH  088%=      5-min Rain = 0
KFLS 141130Z 10004KT M07/M09 A303 RMK A01 T10701088  RH  088%=      5-min Rain = 0
KFLS 141135Z 10004KT M07/M09 A303 RMK A01 T10691088  RH  088%=      5-min Rain = 0
KFLS 141140Z 10004KT M07/M09 A3029 RMK A01 T10691088  RH  087%=      5-min Rain = 0
KFLS 141145Z 10004KT M07/M09 A3029 RMK A01 T10701090  RH  087%=      5-min Rain = 0
KFLS 141150Z 09004KT M07/M09 A3029 RMK A01 T10721093  RH  086%=      5-min Rain = 0
KFLS 141155Z 10004KT M08/M10 A3029 RMK A01 T10761097  RH  086%=      5-min Rain = 0
KFLS 141200Z 10004KT M08/M10 A3029 RMK A01 T10801101  RH  086%=      5-min Rain = 0
KFLS 141205Z 11004KT M08/M10 A303 RMK A01 T10821102  RH  086%=      5-min Rain = 0
KFLS 141210Z 11004KT M08/M10 A3029 RMK A01 T10831104  RH  086%=      5-min Rain = 0
KFLS 141215Z 10004KT M09/M11 A3029 RMK A01 T10851106  RH  086%=      5-min Rain = 0
KFLS 141220Z 10004KT M09/M11 A3029 RMK A01 T10871107  RH  086%=      5-min Rain = 0
KFLS 141225Z 09005KT M09/M11 A303 RMK A01 T10871106  RH  087%=      5-min Rain = 0
KFLS 141230Z 09005KT M08/M10 A3029 RMK A01 T10841102  RH  088%=      5-min Rain = 0
KFLS 141235Z 10004KT M08/M10 A3029 RMK A01 T10791097  RH  088%=      5-min Rain = 0
KFLS 141240Z 11004KT M08/M09 A3029 RMK A01 T10761094  RH  088%=      5-min Rain = 0
KFLS 141245Z 11003KT M07/M09 A3029 RMK A01 T10741092  RH  088%=      5-min Rain = 0
KFLS 141250Z 10003KT M07/M09 A3029 RMK A01 T10731092  RH  088%=      5-min Rain = 0
KFLS 141255Z 10003KT M07/M09 A303 RMK A01 T10721091  RH  087%=      5-min Rain = 0
KFLS 141300Z 10003KT M07/M09 A303 RMK A01 T10711090  RH  087%=      5-min Rain = 0
KFLS 141305Z 11003KT M07/M09 A303 RMK A01 T10691088  RH  087%=      5-min Rain = 0
KFLS 141310Z 10003KT M07/M09 A303 RMK A01 T10681088  RH  087%=      5-min Rain = 0
KFLS 141315Z 10003KT M07/M09 A303 RMK A01 T10671088  RH  086%=      5-min Rain = 0
KFLS 141320Z 10003KT M07/M09 A303 RMK A01 T10671088  RH  086%=      5-min Rain = 0
KFLS 141325Z 10004KT M07/M09 A303 RMK A01 T10671087  RH  087%=      5-min Rain = 0
KFLS 141330Z 11004KT M07/M09 A303 RMK A01 T10661087  RH  086%=      5-min Rain = 0
KFLS 141335Z 11004KT M07/M09 A303 RMK A01 T10671090  RH  085%=      5-min Rain = 0
KFLS 141340Z 11003KT M07/M09 A3031 RMK A01 T10661089  RH  085%=      5-min Rain = 0
KFLS 141345Z 11004KT M07/M09 A3031 RMK A01 T10661088  RH  085%=      5-min Rain = 0
KFLS 141350Z 12004KT M07/M09 A3031 RMK A01 T10651088  RH  085%=      5-min Rain = 0
KFLS 141355Z 13004KT M06/M09 A3031 RMK A01 T10641088  RH  084%=      5-min Rain = 0
KFLS 141400Z 12003KT M06/M09 A3031 RMK A01 T10641088  RH  084%=      5-min Rain = 0
KFLS 141405Z 14003KT M06/M09 A3031 RMK A01 T10631086  RH  084%=      5-min Rain = 0
KFLS 141410Z 13004KT M06/M09 A3031 RMK A01 T10621085  RH  085%=      5-min Rain = 0
KFLS 141415Z 15003KT M06/M08 A3032 RMK A01 T10601083  RH  085%=      5-min Rain = 0
KFLS 141420Z 14004KT M06/M08 A3032 RMK A01 T10601084  RH  084%=      5-min Rain = 0
KFLS 141425Z 15005KT M06/M08 A3032 RMK A01 T10581082  RH  084%=      5-min Rain = 0
KFLS 141430Z 16005KT M06/M08 A3032 RMK A01 T10551079  RH  085%=      5-min Rain = 0
KFLS 141435Z 16005KT M05/M08 A3032 RMK A01 T10541078  RH  084%=      5-min Rain = 0
KFLS 141440Z 16005KT M05/M08 A3032 RMK A01 T10531078  RH  083%=      5-min Rain = 0
KFLS 141445Z 16005KT M05/M07 A3032 RMK A01 T10501074  RH  084%=      5-min Rain = 0
KFLS 141450Z 17006KT M05/M07 A3032 RMK A01 T10471073  RH  083%=      5-min Rain = 0
KFLS 141455Z 16008KT M05/M08 A3032 RMK A01 T10461076  RH  081%=      5-min Rain = 0
KFLS 141500Z 16009KT M05/M08 A3033 RMK A01 T10471078  RH  080%=      5-min Rain = 0
KFLS 141505Z 16009KT M05/M08 A3032 RMK A01 T10461078  RH  080%=      5-min Rain = 0
KFLS 141510Z 16008KT M05/M08 A3032 RMK A01 T10461076  RH  081%=      5-min Rain = 0
KFLS 141515Z 17008KT M05/M08 A3032 RMK A01 T10461075  RH  081%=      5-min Rain = 0
KFLS 141520Z 16009KT M05/M08 A3032 RMK A01 T10461075  RH  081%=      5-min Rain = 0
KFLS 141525Z 16009KT M05/M07 A3032 RMK A01 T10451073  RH  082%=      5-min Rain = 0
KFLS 141530Z 16007KT M04/M07 A3032 RMK A01 T10441071  RH  082%=      5-min Rain = 0
KFLS 141535Z 16007KT M04/M07 A3032 RMK A01 T10431071  RH  082%=      5-min Rain = 0
KFLS 141540Z 16007KT M04/M07 A3032 RMK A01 T10401067  RH  082%=      5-min Rain = 0
KFLS 141545Z 16009KT M04/M07 A3032 RMK A01 T10381065  RH  083%=      5-min Rain = 0
KFLS 141550Z 17007KT M04/M06 A3032 RMK A01 T10371062  RH  084%=      5-min Rain = 0
KFLS 141555Z 17008KT M04/M06 A3032 RMK A01 T10371064  RH  083%=      5-min Rain = 0
KFLS 141600Z 16009KT M04/M06 A3032 RMK A01 T10351061  RH  083%=      5-min Rain = 0
KFLS 141605Z 16009KT M03/M06 A3032 RMK A01 T10341060  RH  083%=      5-min Rain = 0
KFLS 141610Z 16008KT M03/M06 A3032 RMK A01 T10331060  RH  083%=      5-min Rain = 0
KFLS 141615Z 16008KT M03/M06 A3032 RMK A01 T10301057  RH  082%=      5-min Rain = 0
KFLS 141620Z 17009KT M03/M06 A3032 RMK A01 T10281055  RH  083%=      5-min Rain = 0
KFLS 141625Z 16009KT M03/M05 A3031 RMK A01 T10271052  RH  084%=      5-min Rain = 0
KFLS 141630Z 16009KT M03/M05 A3031 RMK A01 T10271051  RH  084%=      5-min Rain = 0
KFLS 141635Z 16010KT M02/M05 A3031 RMK A01 T10241051  RH  083%=      5-min Rain = 0
KFLS 141640Z 16011KT M02/M05 A3031 RMK A01 T10231050  RH  083%=      5-min Rain = 0
KFLS 141645Z 16010KT M03/M05 A3031 RMK A01 T10251050  RH  084%=      5-min Rain = 0
KFLS 141650Z 16010KT M03/M05 A3031 RMK A01 T10251050  RH  084%=      5-min Rain = 0
KFLS 141655Z 16011KT M02/M05 A3031 RMK A01 T10201047  RH  083%=      5-min Rain = 0
KFLS 141700Z 17011KT M02/M05 A3031 RMK A01 T10211047  RH  083%=      5-min Rain = 0
KFLS 141705Z 17010G15KT M02/M05 A3031 RMK A01 T10191045  RH  083%=      5-min Rain = 0
KFLS 141710Z 18011KT M02/M05 A303 RMK A01 T10201045  RH  084%=      5-min Rain = 0
KFLS 141715Z 17010KT M02/M04 A303 RMK A01 T10161042  RH  084%=      5-min Rain = 0
KFLS 141720Z 17012KT M02/M04 A303 RMK A01 T10161043  RH  083%=      5-min Rain = 0
KFLS 141725Z 18012KT M02/M04 A303 RMK A01 T10151042  RH  083%=      5-min Rain = 0
KFLS 141730Z 18013KT M01/M04 A303 RMK A01 T10141041  RH  082%=      5-min Rain = 0
KFLS 141735Z 17011KT M01/M04 A303 RMK A01 T10111040  RH  081%=      5-min Rain = 0
KFLS 141740Z 18012KT M01/M04 A303 RMK A01 T10111041  RH  081%=      5-min Rain = 0
KFLS 141745Z 18011KT M01/M04 A3029 RMK A01 T10101040  RH  081%=      5-min Rain = 0
KFLS 141750Z 18011KT M01/M04 A3029 RMK A01 T10071037  RH  081%=      5-min Rain = 0
KFLS 141755Z 18012KT M01/M04 A3029 RMK A01 T10061037  RH  080%=      5-min Rain = 0
KFLS 141800Z 17012KT M01/M04 A3029 RMK A01 T10071037  RH  081%=      5-min Rain = 0
KFLS 141805Z 19013KT M01/M04 A3028 RMK A01 T10061037  RH  081%=      5-min Rain = 0
KFLS 141810Z 18012G17KT M00/M04 A3028 RMK A01 T10031035  RH  080%=      5-min Rain = 0
KFLS 141815Z 18012KT M00/M04 A3028 RMK A01 T10021035  RH  079%=      5-min Rain = 0
KFLS 141820Z 18012KT 00/M03 A3028 RMK A01 T00011033  RH  079%=      5-min Rain = 0
KFLS 141825Z 18012KT 00/03 A3027 RMK A01 T00000-34  RH  079%=      5-min Rain = 0
KFLS 141830Z 18012KT 00/03 A3027 RMK A01 T00000-33  RH  079%=      5-min Rain = 0
KFLS 141835Z 18014KT 00/M03 A3027 RMK A01 T00011033  RH  079%=      5-min Rain = 0
KFLS 141840Z 18012KT 00/M03 A3026 RMK A01 T00011031  RH  080%=      5-min Rain = 0
KFLS 141845Z 18014KT 00/03 A3026 RMK A01 T00000-32  RH  080%=      5-min Rain = 0
KFLS 141850Z 18012G18KT 00/M03 A3026 RMK A01 T00011031  RH  080%=      5-min Rain = 0
KFLS 141855Z 19013KT 00/M03 A3026 RMK A01 T00021032  RH  079%=      5-min Rain = 0
KFLS 141900Z 19013G19KT 00/M03 A3025 RMK A01 T00031031  RH  079%=      5-min Rain = 0
KFLS 141905Z 19013KT 00/M03 A3025 RMK A01 T00031031  RH  079%=      5-min Rain = 0
KFLS 141910Z 19012KT 00/M03 A3025 RMK A01 T00041030  RH  079%=      5-min Rain = 0
KFLS 141915Z 18014KT 00/M03 A3025 RMK A01 T00021031  RH  079%=      5-min Rain = 0
KFLS 141920Z 18014KT 00/M03 A3025 RMK A01 T00021031  RH  080%=      5-min Rain = 0
KFLS 141925Z 18014KT 00/M03 A3024 RMK A01 T00021031  RH  080%=      5-min Rain = 0
KFLS 141930Z 18014G20KT 00/M03 A3024 RMK A01 T00021030  RH  080%=      5-min Rain = 0
KFLS 141935Z 18015G20KT 00/M03 A3024 RMK A01 T00031030  RH  080%=      5-min Rain = 0
KFLS 141940Z 20014KT 01/M03 A3024 RMK A01 T00051029  RH  079%=      5-min Rain = 0
KFLS 141945Z 19014G19KT 01/M03 A3024 RMK A01 T00051029  RH  079%=      5-min Rain = 0
KFLS 141950Z 20014KT 01/M03 A3023 RMK A01 T00061028  RH  079%=      5-min Rain = 0
KFLS 141955Z 19014G19KT 01/M03 A3023 RMK A01 T00061028  RH  079%=      5-min Rain = 0
KFLS 142000Z 19013G18KT 01/M03 A3022 RMK A01 T00051028  RH  080%=      5-min Rain = 0
KFLS 142005Z 18013KT 01/M03 A3022 RMK A01 T00061028  RH  079%=      5-min Rain = 0
KFLS 142010Z 18013G19KT 01/M03 A3022 RMK A01 T00061028  RH  079%=      5-min Rain = 0
KFLS 142015Z 19014KT 01/M03 A3022 RMK A01 T00061028  RH  079%=      5-min Rain = 0
KFLS 142020Z 19013KT 01/M03 A3021 RMK A01 T00071026  RH  079%=      5-min Rain = 0
KFLS 142025Z 19013KT 01/M03 A3021 RMK A01 T00081026  RH  078%=      5-min Rain = 0
KFLS 142030Z 19013KT 01/M03 A3021 RMK A01 T00091026  RH  078%=      5-min Rain = 0
KFLS 142035Z 20014KT 01/M03 A3021 RMK A01 T00091027  RH  078%=      5-min Rain = 0
KFLS 142040Z 20014KT 01/M03 A302 RMK A01 T00101026  RH  078%=      5-min Rain = 0
KFLS 142045Z 20014KT 01/M03 A302 RMK A01 T00091026  RH  078%=      5-min Rain = 0
KFLS 142050Z 18014G19KT 01/M03 A302 RMK A01 T00101026  RH  078%=      5-min Rain = 0
KFLS 142055Z 19013KT 01/M03 A302 RMK A01 T00091026  RH  078%=      5-min Rain = 0
KFLS 142100Z 19013KT 01/M03 A3019 RMK A01 T00111025  RH  078%=      5-min Rain = 0
KFLS 142105Z 19012KT 01/M02 A3019 RMK A01 T00131023  RH  078%=      5-min Rain = 0
KFLS 142110Z 20011G16KT 02/M02 A3019 RMK A01 T00151023  RH  077%=      5-min Rain = 0
KFLS 142115Z 19014KT 01/M02 A3019 RMK A01 T00121024  RH  078%=      5-min Rain = 0
KFLS 142120Z 20013KT 01/M02 A3018 RMK A01 T00121023  RH  078%=      5-min Rain = 0
KFLS 142125Z 19012KT 02/M02 A3019 RMK A01 T00151022  RH  078%=      5-min Rain = 0
KFLS 142130Z 20013KT 02/M02 A3019 RMK A01 T00151022  RH  077%=      5-min Rain = 0
KFLS 142135Z 19013KT 01/M02 A3019 RMK A01 T00141022  RH  078%=      5-min Rain = 0
KFLS 142140Z 18013KT 01/M02 A3018 RMK A01 T00141022  RH  078%=      5-min Rain = 0
KFLS 142145Z 18012G17KT 02/M02 A3018 RMK A01 T00171020  RH  077%=      5-min Rain = 0
KFLS 142150Z 18014KT 02/M02 A3018 RMK A01 T00151021  RH  078%=      5-min Rain = 0
KFLS 142155Z 18012KT 02/M02 A3017 RMK A01 T00161019  RH  078%=      5-min Rain = 0
KFLS 142200Z 18013KT 02/M02 A3017 RMK A01 T00171019  RH  077%=      5-min Rain = 0
KFLS 142205Z 18013KT 02/M02 A3017 RMK A01 T00171019  RH  078%=      5-min Rain = 0
KFLS 142210Z 18013KT 02/M02 A3017 RMK A01 T00171019  RH  078%=      5-min Rain = 0
KFLS 142215Z 18014KT 02/M02 A3017 RMK A01 T00181018  RH  078%=      5-min Rain = 0
KFLS 142220Z 19014KT 02/M02 A3017 RMK A01 T00181018  RH  078%=      5-min Rain = 0
KFLS 142225Z 18014G19KT 02/M02 A3016 RMK A01 T00191017  RH  078%=      5-min Rain = 0
KFLS 142230Z 18013KT 02/M02 A3016 RMK A01 T00191017  RH  078%=      5-min Rain = 0
KFLS 142235Z 18015G20KT 02/M02 A3016 RMK A01 T00181017  RH  078%=      5-min Rain = 0
KFLS 142240Z 18015KT 02/M02 A3016 RMK A01 T00181017  RH  078%=      5-min Rain = 0
KFLS 142245Z 18015KT 02/M02 A3016 RMK A01 T00181017  RH  079%=      5-min Rain = 0
KFLS 142250Z 18013G19KT 02/M02 A3016 RMK A01 T00171017  RH  079%=      5-min Rain = 0
KFLS 142255Z 18014G19KT 02/M02 A3016 RMK A01 T00171017  RH  079%=      5-min Rain = 0
KFLS 142300Z 18015G20KT 02/M02 A3016 RMK A01 T00161017  RH  080%=      5-min Rain = 0
KFLS 142305Z 18013G19KT 02/M02 A3016 RMK A01 T00171016  RH  080%=      5-min Rain = 0
KFLS 142310Z 18014KT 02/M02 A3016 RMK A01 T00151017  RH  080%=      5-min Rain = 0
KFLS 142315Z 18014G19KT 02/M02 A3016 RMK A01 T00151016  RH  081%=      5-min Rain = 0
KFLS 142320Z 18014G19KT 02/M02 A3015 RMK A01 T00151015  RH  082%=      5-min Rain = 0
KFLS 142325Z 18014KT 01/M01 A3015 RMK A01 T00141014  RH  082%=      5-min Rain = 0
KFLS 142330Z 19014KT 01/M02 A3016 RMK A01 T00131015  RH  083%=      5-min Rain = 0
KFLS 142335Z 18013KT 01/M02 A3016 RMK A01 T00111015  RH  084%=      5-min Rain = 0
KFLS 142340Z 18013G21KT 01/M02 A3016 RMK A01 T00101015  RH  084%=      5-min Rain = 0
KFLS 142345Z 19013G20KT 01/M01 A3016 RMK A01 T00111014  RH  085%=      5-min Rain = 0
KFLS 142350Z 19014KT 01/M02 A3015 RMK A01 T00091015  RH  085%=      5-min Rain = 0
KFLS 142355Z 19013KT 01/M02 A3015 RMK A01 T00061017  RH  086%=      5-min Rain = 0
KFLS 150000Z 19013KT 01/M02 A3015 RMK A01 T00051016  RH  086%=      5-min Rain = 0
KFLS 150005Z 18011G16KT 00/M02 A3015 RMK A01 T00041016  RH  087%=      5-min Rain = 0
KFLS 150010Z 18012G17KT 00/M02 A3015 RMK A01 T00031016  RH  088%=      5-min Rain = 0
KFLS 150015Z 19013KT 00/M02 A3015 RMK A01 T00031016  RH  088%=      5-min Rain = 0
KFLS 150020Z 18012G17KT 00/M02 A3015 RMK A01 T00021016  RH  088%=      5-min Rain = 0
KFLS 150025Z 19012KT 00/M02 A3015 RMK A01 T00011016  RH  089%=      5-min Rain = 0
KFLS 150030Z 19010KT 00/M02 A3014 RMK A01 T00011015  RH  090%=      5-min Rain = 0
KFLS 150035Z 18011KT 00/M02 A3015 RMK A01 T00011015  RH  090%=      5-min Rain = 0
KFLS 150040Z 18010KT 00/02 A3015 RMK A01 T00000-15  RH  090%=      5-min Rain = 0
KFLS 150045Z 19010KT M00/M02 A3015 RMK A01 T10011016  RH  091%=      5-min Rain = 0
KFLS 150050Z 20011KT M00/M01 A3014 RMK A01 T10011014  RH  092%=      5-min Rain = 0
KFLS 150055Z 19012KT 00/M01 A3015 RMK A01 T00011012  RH  092%=      5-min Rain = 0
KFLS 150100Z 19011KT 00/M01 A3014 RMK A01 T00021010  RH  093%=      5-min Rain = 0
KFLS 150105Z 20011KT 00/M01 A3014 RMK A01 T00021010  RH  093%=      5-min Rain = 0
KFLS 150110Z 21010KT 00/M01 A3015 RMK A01 T00021010  RH  093%=      5-min Rain = 0
KFLS 150115Z 21011KT 00/M01 A3014 RMK A01 T00021010  RH  093%=      5-min Rain = 0
KFLS 150120Z 21011KT 00/M01 A3014 RMK A01 T00011010  RH  093%=      5-min Rain = 0
KFLS 150125Z 21010KT 00/01 A3014 RMK A01 T00000-11  RH  093%=      5-min Rain = 0
KFLS 150130Z 21010KT M00/M01 A3014 RMK A01 T10011011  RH  094%=      5-min Rain = 0
KFLS 150135Z 21011KT M00/M01 A3014 RMK A01 T10011010  RH  094%=      5-min Rain = 0
KFLS 150140Z 22010KT 00/01 A3014 RMK A01 T00-00-10  RH  094%=      5-min Rain = 0
KFLS 150145Z 21011KT M00/M01 A3014 RMK A01 T10021011  RH  095%=      5-min Rain = 0
KFLS 150150Z 21012KT 00/01 A3014 RMK A01 T00-000-9  RH  095%=      5-min Rain = 0
KFLS 150155Z 21011KT 00/01 A3014 RMK A01 T000000-8  RH  095%=      5-min Rain = 0
KFLS 150200Z 21010KT 00/01 A3014 RMK A01 T00-000-8  RH  095%=      5-min Rain = 0
KFLS 150205Z 22010KT 00/01 A3014 RMK A01 T00-000-8  RH  095%=      5-min Rain = 0
KFLS 150210Z 22009KT 00/01 A3014 RMK A01 T00-000-8  RH  095%=      5-min Rain = 0
KFLS 150215Z 22009KT 00/01 A3014 RMK A01 T000000-8  RH  095%=      5-min Rain = 0
KFLS 150220Z 22008KT M00/M01 A3014 RMK A01 T10021010  RH  095%=      5-min Rain = 0
KFLS 150225Z 23008KT M00/M01 A3014 RMK A01 T10031011  RH  095%=      5-min Rain = 0
KFLS 150230Z 22007KT M00/M01 A3014 RMK A01 T10041011  RH  096%=      5-min Rain = 0
KFLS 150235Z 22008KT M00/M01 A3013 RMK A01 T10021009  RH  096%=      5-min Rain = 0
KFLS 150240Z 22008KT M00/M01 A3014 RMK A01 T10011008  RH  096%=      5-min Rain = 0
KFLS 150245Z 22008KT 00/01 A3014 RMK A01 T00-000-7  RH  096%=      5-min Rain = 0
KFLS 150250Z 22009KT M00/M01 A3013 RMK A01 T10011008  RH  096%=      5-min Rain = 0
KFLS 150255Z 22009KT M00/M01 A3013 RMK A01 T10011008  RH  096%=      5-min Rain = 0
KFLS 150300Z 21008KT 00/01 A3013 RMK A01 T00-000-7  RH  096%=      5-min Rain = 0
KFLS 150305Z 22008KT 00/M01 A3013 RMK A01 T00011006  RH  096%=      5-min Rain = 0
KFLS 150310Z 21009KT M00/M01 A3013 RMK A01 T10011008  RH  096%=      5-min Rain = 0
KFLS 150315Z 21009KT M00/M01 A3013 RMK A01 T10021010  RH  096%=      5-min Rain = 0
KFLS 150320Z 21008KT M01/M01 A3013 RMK A01 T10051013  RH  096%=      5-min Rain = 0
KFLS 150325Z 20009KT M01/M01 A3013 RMK A01 T10061013  RH  096%=      5-min Rain = 0
KFLS 150330Z 20009KT M01/M01 A3013 RMK A01 T10061013  RH  096%=      5-min Rain = 0
KFLS 150335Z 20010KT M01/M01 A3013 RMK A01 T10061012  RH  096%=      5-min Rain = 0
KFLS 150340Z 20011KT M00/M01 A3012 RMK A01 T10031009  RH  097%=      5-min Rain = 0
KFLS 150345Z 20010KT M00/M01 A3012 RMK A01 T10031009  RH  096%=      5-min Rain = 0
KFLS 150350Z 20011KT M00/M01 A3012 RMK A01 T10011008  RH  096%=      5-min Rain = 0
KFLS 150355Z 20011KT 00/M01 A3012 RMK A01 T00011006  RH  096%=      5-min Rain = 0
KFLS 150400Z 20011KT 00/M01 A3012 RMK A01 T00031005  RH  095%=      5-min Rain = 0
KFLS 150405Z 20011KT 01/M00 A3012 RMK A01 T00051004  RH  095%=      5-min Rain = 0
KFLS 150410Z 20010KT 01/M00 A3012 RMK A01 T00061004  RH  094%=      5-min Rain = 0
KFLS 150415Z 20011KT 01/M00 A3012 RMK A01 T00071004  RH  093%=      5-min Rain = 0
KFLS 150420Z 20011KT 01/M00 A3012 RMK A01 T00081003  RH  093%=      5-min Rain = 0
KFLS 150425Z 20011KT 01/M00 A3012 RMK A01 T00091004  RH  093%=      5-min Rain = 0
KFLS 150430Z 20011KT 01/M00 A3012 RMK A01 T00081004  RH  092%=      5-min Rain = 0
KFLS 150435Z 20011KT 01/M00 A3011 RMK A01 T00081004  RH  093%=      5-min Rain = 0
KFLS 150440Z 20012KT 01/M00 A3011 RMK A01 T00091003  RH  093%=      5-min Rain = 0
KFLS 150445Z 19013KT 01/00 A3011 RMK A01 T00130000  RH  092%=      5-min Rain = 0
KFLS 150450Z 19013KT 01/00 A301 RMK A01 T00140000  RH  091%=      5-min Rain = 0
KFLS 150455Z 19013G18KT 02/00 A301 RMK A01 T00160001  RH  091%=      5-min Rain = 0
KFLS 150500Z 19015KT 02/00 A301 RMK A01 T00180002  RH  091%=      5-min Rain = 0
KFLS 150505Z 19015KT 02/00 A301 RMK A01 T00200003  RH  090%=      5-min Rain = 0
KFLS 150510Z 19015KT 02/00 A301 RMK A01 T00220004  RH  089%=      5-min Rain = 0
KFLS 150515Z 18015KT 02/00 A3009 RMK A01 T00230004  RH  088%=      5-min Rain = 0
KFLS 150520Z 18016KT 02/00 A3009 RMK A01 T00230004  RH  088%=      5-min Rain = 0
KFLS 150525Z 18016KT 02/00 A3009 RMK A01 T00230004  RH  088%=      5-min Rain = 0
KFLS 150530Z 18016KT 02/00 A3009 RMK A01 T00230004  RH  088%=      5-min Rain = 0
KFLS 150535Z 18017G22KT 03/01 A3009 RMK A01 T00250006  RH  088%=      5-min Rain = 0
KFLS 150540Z 19017KT 03/01 A3009 RMK A01 T00270006  RH  087%=      5-min Rain = 0
KFLS 150545Z 19017G22KT 03/01 A3009 RMK A01 T00290008  RH  087%=      5-min Rain = 0
KFLS 150550Z 19015G20KT 03/01 A3009 RMK A01 T00290007  RH  087%=      5-min Rain = 0
KFLS 150555Z 19016G21KT 03/01 A3009 RMK A01 T00290008  RH  087%=      5-min Rain = 0

Page generated in 0.0296 seconds.